createdAt,value
2017-04-27T00:00:08.288Z,931.12
2017-04-27T00:01:21.080Z,931.13
2017-04-27T00:02:33.853Z,931.17
2017-04-27T00:03:46.716Z,931.15
2017-04-27T00:04:59.821Z,931.16
2017-04-27T00:06:12.638Z,931.16
2017-04-27T00:07:24.431Z,931.14
2017-04-27T00:08:37.186Z,931.12
2017-04-27T00:09:50.142Z,931.15
2017-04-27T00:11:02.910Z,931.14
2017-04-27T00:12:15.790Z,931.11
2017-04-27T00:13:28.678Z,931.15
2017-04-27T00:14:41.559Z,931.16
2017-04-27T00:15:54.639Z,931.17
2017-04-27T00:17:07.039Z,931.17
2017-04-27T00:18:19.451Z,931.14
2017-04-27T00:19:32.328Z,931.15
2017-04-27T00:20:45.414Z,931.18
2017-04-27T00:21:58.297Z,931.16
2017-04-27T00:23:10.688Z,931.14
2017-04-27T00:24:23.564Z,931.08
2017-04-27T00:25:36.439Z,931.08
2017-04-27T00:26:49.138Z,931.16
2017-04-27T00:28:02.033Z,931.12
2017-04-27T00:29:14.924Z,931.18
2017-04-27T00:30:27.823Z,931.11
2017-04-27T00:31:40.742Z,931.15
2017-04-27T00:32:53.141Z,931.18
2017-04-27T00:34:06.024Z,931.16
2017-04-27T00:35:18.426Z,931.16
2017-04-27T00:36:31.306Z,931.19
2017-04-27T00:37:44.192Z,931.23
2017-04-27T00:38:57.084Z,931.23
2017-04-27T00:40:09.977Z,931.21
2017-04-27T00:41:22.382Z,931.19
2017-04-27T00:42:35.291Z,931.24
2017-04-27T00:43:48.179Z,931.26
2017-04-27T00:45:01.084Z,931.32
2017-04-27T00:46:13.965Z,931.33
2017-04-27T00:47:26.850Z,931.3
2017-04-27T00:48:39.750Z,931.32
2017-04-27T00:49:52.637Z,931.34
2017-04-27T00:51:05.035Z,931.35
2017-04-27T00:52:17.429Z,931.34
2017-04-27T00:53:30.314Z,931.4
2017-04-27T00:54:43.194Z,931.36
2017-04-27T00:55:56.075Z,931.34
2017-04-27T00:57:08.471Z,931.35
2017-04-27T00:58:20.865Z,931.34
2017-04-27T00:59:33.746Z,931.31
2017-04-27T01:00:46.633Z,931.3
2017-04-27T01:01:59.524Z,931.32
2017-04-27T01:03:11.913Z,931.28
2017-04-27T01:04:24.308Z,931.32
2017-04-27T01:05:36.701Z,931.34
2017-04-27T01:06:49.591Z,931.36
2017-04-27T01:08:01.982Z,931.36
2017-04-27T01:09:14.388Z,931.38
2017-04-27T01:10:40.843Z,931.43
2017-04-27T01:11:53.766Z,931.39
2017-04-27T01:13:06.662Z,931.45
2017-04-27T01:14:19.567Z,931.48
2017-04-27T01:15:46.527Z,931.45
2017-04-27T01:16:59.441Z,931.47
2017-04-27T01:18:12.353Z,931.48
2017-04-27T01:19:25.282Z,931.56
2017-04-27T01:20:37.686Z,931.57
2017-04-27T01:21:50.621Z,931.6
2017-04-27T01:23:03.537Z,931.6
2017-04-27T01:24:15.977Z,931.63
2017-04-27T01:25:28.395Z,931.66
2017-04-27T01:26:41.321Z,931.66
2017-04-27T01:27:54.237Z,931.65
2017-04-27T01:29:07.128Z,931.68
2017-04-27T01:30:20.051Z,931.7
2017-04-27T01:31:33.281Z,931.73
2017-04-27T01:32:46.209Z,931.72
2017-04-27T01:33:59.155Z,931.76
2017-04-27T01:35:11.568Z,931.77
2017-04-27T01:36:24.664Z,931.76
2017-04-27T01:37:37.553Z,931.72
2017-04-27T01:38:50.455Z,931.78
2017-04-27T01:40:03.080Z,931.82
2017-04-27T01:41:15.505Z,931.83
2017-04-27T01:42:28.639Z,931.88
2017-04-27T01:43:41.594Z,931.93
2017-04-27T01:44:54.017Z,931.93
2017-04-27T01:46:06.442Z,931.95
2017-04-27T01:47:18.844Z,931.99
2017-04-27T01:48:31.757Z,932.07
2017-04-27T01:49:44.681Z,932.05
2017-04-27T01:50:57.608Z,932.03
2017-04-27T01:52:10.530Z,932.06
2017-04-27T01:53:22.475Z,932.02
2017-04-27T01:54:35.392Z,932.03
2017-04-27T01:55:48.322Z,932.05
2017-04-27T01:57:01.236Z,932.11
2017-04-27T01:58:13.682Z,932.19
2017-04-27T01:59:26.604Z,932.21
2017-04-27T02:00:39.537Z,932.19
2017-04-27T02:01:52.464Z,932.25
2017-04-27T02:03:05.398Z,932.31
2017-04-27T02:04:18.515Z,932.33
2017-04-27T02:05:31.412Z,932.3
2017-04-27T02:06:44.334Z,932.21
2017-04-27T02:07:57.260Z,932.2
2017-04-27T02:09:10.201Z,932.24
2017-04-27T02:10:23.111Z,932.33
2017-04-27T02:11:35.554Z,932.33
2017-04-27T02:12:48.467Z,932.28
2017-04-27T02:14:01.399Z,932.22
2017-04-27T02:15:14.319Z,932.24
2017-04-27T02:16:27.248Z,932.19
2017-04-27T02:17:40.171Z,932.22
2017-04-27T02:18:53.296Z,932.23
2017-04-27T02:20:06.531Z,932.24
2017-04-27T02:21:19.446Z,932.24
2017-04-27T02:22:32.365Z,932.18
2017-04-27T02:23:45.285Z,932.23
2017-04-27T02:24:58.235Z,932.2
2017-04-27T02:26:11.316Z,932.2
2017-04-27T02:27:24.086Z,932.11
2017-04-27T02:28:36.846Z,932.03
2017-04-27T02:29:49.656Z,932.04
2017-04-27T02:31:02.657Z,931.92
2017-04-27T02:32:15.423Z,931.92
2017-04-27T02:33:27.707Z,931.89
2017-04-27T02:34:40.477Z,931.86
2017-04-27T02:35:53.241Z,931.88
2017-04-27T02:37:05.537Z,931.82
2017-04-27T02:38:18.313Z,931.81
2017-04-27T02:39:31.095Z,931.87
2017-04-27T02:40:43.395Z,931.78
2017-04-27T02:41:56.378Z,931.76
2017-04-27T02:43:09.154Z,931.67
2017-04-27T02:44:21.934Z,931.66
2017-04-27T02:45:34.684Z,931.65
2017-04-27T02:46:47.423Z,931.67
2017-04-27T02:48:00.173Z,931.65
2017-04-27T02:49:12.433Z,931.7
2017-04-27T02:50:24.704Z,931.73
2017-04-27T02:51:37.454Z,931.7
2017-04-27T02:52:50.211Z,931.72
2017-04-27T02:54:02.967Z,931.66
2017-04-27T02:55:15.238Z,931.69
2017-04-27T02:56:27.978Z,931.64
2017-04-27T02:57:40.725Z,931.62
2017-04-27T02:59:07.556Z,931.65
2017-04-27T03:00:19.831Z,931.64
2017-04-27T03:01:32.096Z,931.63
2017-04-27T03:02:44.368Z,931.66
2017-04-27T03:05:23.459Z,931.63
2017-04-27T03:06:36.232Z,931.67
2017-04-27T03:07:48.497Z,931.67
2017-04-27T03:09:01.440Z,931.66
2017-04-27T03:10:14.194Z,931.68
2017-04-27T03:11:26.462Z,931.62
2017-04-27T03:12:39.203Z,931.61
2017-04-27T03:13:51.951Z,931.62
2017-04-27T03:15:08.026Z,931.65
2017-04-27T03:17:17.353Z,931.73
2017-04-27T03:18:30.529Z,931.76
2017-04-27T03:19:43.294Z,931.79
2017-04-27T03:20:56.494Z,931.83
2017-04-27T03:22:09.231Z,931.86
2017-04-27T03:23:22.290Z,931.81
2017-04-27T03:24:35.792Z,931.83
2017-04-27T03:25:48.909Z,931.84
2017-04-27T03:27:01.788Z,931.81
2017-04-27T03:28:14.180Z,931.7
2017-04-27T03:29:26.572Z,931.73
2017-04-27T03:30:39.459Z,931.8
2017-04-27T03:31:51.849Z,931.85
2017-04-27T03:33:04.728Z,931.88
2017-04-27T03:34:16.632Z,931.95
2017-04-27T03:35:29.506Z,931.93
2017-04-27T03:36:41.896Z,931.85
2017-04-27T03:37:54.771Z,931.85
2017-04-27T03:39:07.654Z,931.81
2017-04-27T03:40:20.530Z,931.81
2017-04-27T03:41:33.223Z,931.79
2017-04-27T03:42:46.106Z,931.8
2017-04-27T03:43:58.986Z,931.72
2017-04-27T03:45:11.870Z,931.71
2017-04-27T03:46:24.771Z,931.71
2017-04-27T03:47:37.896Z,931.63
2017-04-27T03:48:50.776Z,931.65
2017-04-27T03:50:03.657Z,931.57
2017-04-27T03:51:15.555Z,931.51
2017-04-27T03:52:27.941Z,931.5
2017-04-27T03:53:40.821Z,931.49
2017-04-27T03:54:53.726Z,931.54
2017-04-27T03:56:06.651Z,931.56
2017-04-27T03:57:19.574Z,931.54
2017-04-27T03:58:32.494Z,931.55
2017-04-27T03:59:45.418Z,931.55
2017-04-27T04:00:58.341Z,931.61
2017-04-27T04:02:11.275Z,931.58
2017-04-27T04:03:24.197Z,931.55
2017-04-27T04:04:37.128Z,931.53
2017-04-27T04:05:50.049Z,931.47
2017-04-27T04:07:02.970Z,931.49
2017-04-27T04:08:15.401Z,931.53
2017-04-27T04:09:27.836Z,931.47
2017-04-27T04:10:40.758Z,931.45
2017-04-27T04:11:53.685Z,931.44
2017-04-27T04:13:06.607Z,931.46
2017-04-27T04:14:19.776Z,931.44
2017-04-27T04:15:32.701Z,931.51
2017-04-27T04:16:45.620Z,931.52
2017-04-27T04:17:58.540Z,931.5
2017-04-27T04:19:11.464Z,931.47
2017-04-27T04:20:24.639Z,931.44
2017-04-27T04:21:37.558Z,931.51
2017-04-27T04:22:50.478Z,931.5
2017-04-27T04:24:02.912Z,931.54
2017-04-27T04:25:16.087Z,931.62
2017-04-27T04:26:29.010Z,931.63
2017-04-27T04:27:41.929Z,931.64
2017-04-27T04:28:54.365Z,931.7
2017-04-27T04:30:07.320Z,931.74
2017-04-27T04:31:19.755Z,931.84
2017-04-27T04:32:32.683Z,931.9
2017-04-27T04:33:45.607Z,931.9
2017-04-27T04:34:58.528Z,931.87
2017-04-27T04:36:10.959Z,931.89
2017-04-27T04:37:23.879Z,931.88
2017-04-27T04:38:36.800Z,931.82
2017-04-27T04:39:49.727Z,931.84
2017-04-27T04:41:02.657Z,931.79
2017-04-27T04:42:15.876Z,931.73
2017-04-27T04:43:28.797Z,931.71
2017-04-27T04:44:41.719Z,931.73
2017-04-27T04:45:54.641Z,931.74
2017-04-27T04:47:07.566Z,931.75
2017-04-27T04:48:20.484Z,931.78
2017-04-27T04:49:32.919Z,931.77
2017-04-27T04:50:45.845Z,931.78
2017-04-27T04:51:58.772Z,931.81
2017-04-27T04:53:11.205Z,931.82
2017-04-27T04:54:24.130Z,931.82
2017-04-27T04:55:37.055Z,931.82
2017-04-27T04:56:49.983Z,931.74
2017-04-27T04:58:03.160Z,931.68
2017-04-27T04:59:16.096Z,931.62
2017-04-27T05:00:28.531Z,931.57
2017-04-27T05:01:41.480Z,931.56
2017-04-27T05:02:54.403Z,931.58
2017-04-27T05:04:07.338Z,931.6
2017-04-27T05:05:20.263Z,931.62
2017-04-27T05:06:33.191Z,931.56
2017-04-27T05:07:46.019Z,931.58
2017-04-27T05:08:58.783Z,931.6
2017-04-27T05:10:11.047Z,931.67
2017-04-27T05:11:23.798Z,931.7
2017-04-27T05:12:36.540Z,931.68
2017-04-27T05:13:49.304Z,931.69
2017-04-27T05:15:02.307Z,931.65
2017-04-27T05:16:15.051Z,931.6
2017-04-27T05:17:27.791Z,931.59
2017-04-27T05:18:40.062Z,931.59
2017-04-27T05:19:53.120Z,931.55
2017-04-27T05:21:05.388Z,931.54
2017-04-27T05:22:17.653Z,931.56
2017-04-27T05:23:30.403Z,931.52
2017-04-27T05:24:43.151Z,931.53
2017-04-27T05:25:55.917Z,931.53
2017-04-27T05:27:08.309Z,931.52
2017-04-27T05:28:21.201Z,931.49
2017-04-27T05:29:33.650Z,931.48
2017-04-27T05:30:46.776Z,931.46
2017-04-27T05:31:59.651Z,931.46
2017-04-27T05:33:12.043Z,931.47
2017-04-27T05:34:24.921Z,931.42
2017-04-27T05:35:37.800Z,931.43
2017-04-27T05:36:50.929Z,931.39
2017-04-27T05:38:03.807Z,931.37
2017-04-27T05:39:16.688Z,931.36
2017-04-27T05:40:29.077Z,931.35
2017-04-27T05:41:41.952Z,931.32
2017-04-27T05:42:54.338Z,931.34
2017-04-27T05:44:07.217Z,931.35
2017-04-27T05:45:19.122Z,931.36
2017-04-27T05:46:32.000Z,931.39
2017-04-27T05:47:44.875Z,931.43
2017-04-27T05:48:57.752Z,931.44
2017-04-27T05:50:10.626Z,931.41
2017-04-27T05:51:23.502Z,931.46
2017-04-27T05:52:36.378Z,931.47
2017-04-27T05:53:49.259Z,931.46
2017-04-27T05:55:02.143Z,931.44
2017-04-27T05:56:15.019Z,931.43
2017-04-27T05:57:27.411Z,931.46
2017-04-27T05:58:40.590Z,931.47
2017-04-27T05:59:53.465Z,931.49
2017-04-27T06:01:06.345Z,931.53
2017-04-27T06:02:19.223Z,931.55
2017-04-27T06:03:32.356Z,931.58
2017-04-27T06:04:44.751Z,931.61
2017-04-27T06:05:57.632Z,931.68
2017-04-27T06:07:10.033Z,931.68
2017-04-27T06:08:22.909Z,931.71
2017-04-27T06:09:35.793Z,931.73
2017-04-27T06:10:48.652Z,931.77
2017-04-27T06:12:01.395Z,931.79
2017-04-27T06:13:13.697Z,931.83
2017-04-27T06:14:26.454Z,931.86
2017-04-27T06:15:38.722Z,931.92
2017-04-27T06:16:51.469Z,931.88
2017-04-27T06:18:04.224Z,931.91
2017-04-27T06:19:17.145Z,931.88
2017-04-27T06:20:30.070Z,931.9
2017-04-27T06:21:42.501Z,931.89
2017-04-27T06:22:55.423Z,931.91
2017-04-27T06:24:08.344Z,931.98
2017-04-27T06:25:21.265Z,931.93
2017-04-27T06:26:34.190Z,931.94
2017-04-27T06:27:47.114Z,931.96
2017-04-27T06:29:00.046Z,931.98
2017-04-27T06:30:12.478Z,931.98
2017-04-27T06:31:25.156Z,931.99
2017-04-27T06:32:38.076Z,931.94
2017-04-27T06:33:50.999Z,931.94
2017-04-27T06:35:03.918Z,931.96
2017-04-27T06:36:16.380Z,931.95
2017-04-27T06:37:29.301Z,931.94
2017-04-27T06:38:42.225Z,931.9
2017-04-27T06:39:55.178Z,931.86
2017-04-27T06:41:08.109Z,931.9
2017-04-27T06:42:20.790Z,931.93
2017-04-27T06:43:33.716Z,931.98
2017-04-27T06:44:46.633Z,931.93
2017-04-27T06:45:59.556Z,931.85
2017-04-27T06:47:12.775Z,931.77
2017-04-27T06:48:24.718Z,931.83
2017-04-27T06:49:37.641Z,931.9
2017-04-27T06:50:50.562Z,931.99
2017-04-27T06:52:03.482Z,932.04
2017-04-27T06:53:16.652Z,932.02
2017-04-27T06:54:29.575Z,931.99
2017-04-27T06:55:42.514Z,932.02
2017-04-27T06:56:55.573Z,932.11
2017-04-27T06:58:08.631Z,932.14
2017-04-27T06:59:21.704Z,932.18
2017-04-27T07:00:33.767Z,932.14
2017-04-27T07:01:46.829Z,932.2
2017-04-27T07:02:59.895Z,932.28
2017-04-27T07:04:12.956Z,932.33
2017-04-27T07:05:26.022Z,932.43
2017-04-27T07:06:39.082Z,932.41
2017-04-27T07:07:52.156Z,932.41
2017-04-27T07:09:05.221Z,932.36
2017-04-27T07:10:18.279Z,932.3
2017-04-27T07:11:30.839Z,932.3
2017-04-27T07:12:43.897Z,932.34
2017-04-27T07:13:56.455Z,932.3
2017-04-27T07:15:09.014Z,932.3
2017-04-27T07:16:22.075Z,932.34
2017-04-27T07:17:35.137Z,932.37
2017-04-27T07:18:48.209Z,932.34
2017-04-27T07:20:01.533Z,932.35
2017-04-27T07:21:13.592Z,932.32
2017-04-27T07:22:26.649Z,932.31
2017-04-27T07:23:39.712Z,932.39
2017-04-27T07:24:52.770Z,932.41
2017-04-27T07:26:05.831Z,932.45
2017-04-27T07:27:18.401Z,932.47
2017-04-27T07:28:31.448Z,932.52
2017-04-27T07:29:44.327Z,932.54
2017-04-27T07:30:57.456Z,932.5
2017-04-27T07:32:10.333Z,932.51
2017-04-27T07:33:22.723Z,932.56
2017-04-27T07:34:35.602Z,932.58
2017-04-27T07:35:48.478Z,932.59
2017-04-27T07:37:00.876Z,932.62
2017-04-27T07:38:13.262Z,932.66
2017-04-27T07:39:25.652Z,932.65
2017-04-27T07:40:38.527Z,932.69
2017-04-27T07:41:51.576Z,932.68
2017-04-27T07:43:04.318Z,932.61
2017-04-27T07:44:17.067Z,932.64
2017-04-27T07:45:29.822Z,932.64
2017-04-27T07:46:42.564Z,932.68
2017-04-27T07:47:55.307Z,932.65
2017-04-27T07:49:08.052Z,932.66
2017-04-27T07:50:20.326Z,932.65
2017-04-27T07:51:33.098Z,932.67
2017-04-27T07:52:45.847Z,932.72
2017-04-27T07:53:58.593Z,932.75
2017-04-27T07:55:11.340Z,932.76
2017-04-27T07:56:23.140Z,932.74
2017-04-27T07:57:35.881Z,932.77
2017-04-27T07:58:48.879Z,932.76
2017-04-27T08:00:01.624Z,932.77
2017-04-27T08:01:14.367Z,932.76
2017-04-27T08:02:27.106Z,932.77
2017-04-27T08:03:40.153Z,932.79
2017-04-27T08:04:51.950Z,932.81
2017-04-27T08:06:04.694Z,932.79
2017-04-27T08:07:16.494Z,932.81
2017-04-27T08:08:29.412Z,932.82
2017-04-27T08:09:41.846Z,932.83
2017-04-27T08:10:54.771Z,932.85
2017-04-27T08:12:07.213Z,932.85
2017-04-27T08:13:19.644Z,932.84
2017-04-27T08:14:32.569Z,932.8
2017-04-27T08:15:45.005Z,932.8
2017-04-27T08:16:57.924Z,932.81
2017-04-27T08:18:10.365Z,932.79
2017-04-27T08:19:22.310Z,932.81
2017-04-27T08:20:35.235Z,932.86
2017-04-27T08:21:48.155Z,932.87
2017-04-27T08:23:01.084Z,932.89
2017-04-27T08:24:13.514Z,932.91
2017-04-27T08:25:26.197Z,932.95
2017-04-27T08:26:39.120Z,933.03
2017-04-27T08:27:52.055Z,933.01
2017-04-27T08:29:04.983Z,933.01
2017-04-27T08:30:17.421Z,933.05
2017-04-27T08:31:30.157Z,933.07
2017-04-27T08:32:42.097Z,933.05
2017-04-27T08:33:55.037Z,933.08
2017-04-27T08:35:07.472Z,933.13
2017-04-27T08:36:19.668Z,933.11
2017-04-27T08:37:32.587Z,933.09
2017-04-27T08:38:45.017Z,933.13
2017-04-27T08:39:57.942Z,933.18
2017-04-27T08:41:09.883Z,933.2
2017-04-27T08:42:22.563Z,933.23
2017-04-27T08:43:34.998Z,933.27
2017-04-27T08:44:47.923Z,933.25
2017-04-27T08:46:00.364Z,933.28
2017-04-27T08:47:12.551Z,933.31
2017-04-27T08:48:25.472Z,933.32
2017-04-27T08:49:37.420Z,933.35
2017-04-27T08:50:49.863Z,933.38
2017-04-27T08:52:02.784Z,933.42
2017-04-27T08:53:14.533Z,933.47
2017-04-27T08:54:25.982Z,933.49
2017-04-27T08:55:38.907Z,933.43
2017-04-27T08:56:51.828Z,933.45
2017-04-27T08:58:05.047Z,933.49
2017-04-27T08:59:17.478Z,933.54
2017-04-27T09:00:29.910Z,933.59
2017-04-27T09:01:42.340Z,933.64
2017-04-27T09:02:55.262Z,933.62
2017-04-27T09:04:07.452Z,933.63
2017-04-27T09:05:19.885Z,933.61
2017-04-27T09:06:32.807Z,933.57
2017-04-27T09:07:45.238Z,933.58
2017-04-27T09:08:57.924Z,933.62
2017-04-27T09:10:10.853Z,933.63
2017-04-27T09:11:23.282Z,933.67
2017-04-27T09:12:36.211Z,933.66
2017-04-27T09:13:48.644Z,933.68
2017-04-27T09:15:01.819Z,933.73
2017-04-27T09:16:14.739Z,933.75
2017-04-27T09:17:26.682Z,933.75
2017-04-27T09:18:39.114Z,933.79
2017-04-27T09:19:52.347Z,933.79
2017-04-27T09:21:04.780Z,933.82
2017-04-27T09:22:17.220Z,933.85
2017-04-27T09:23:30.146Z,933.81
2017-04-27T09:24:43.082Z,933.84
2017-04-27T09:25:55.033Z,933.84
2017-04-27T09:27:07.467Z,933.89
2017-04-27T09:28:20.405Z,933.95
2017-04-27T09:29:32.834Z,933.95
2017-04-27T09:30:45.263Z,934
2017-04-27T09:31:58.184Z,934.02
2017-04-27T09:33:11.104Z,934.05
2017-04-27T09:34:23.545Z,934.01
2017-04-27T09:35:35.975Z,934.03
2017-04-27T09:36:49.144Z,934.01
2017-04-27T09:38:01.572Z,934.04
2017-04-27T09:39:14.494Z,934.1
2017-04-27T09:40:26.928Z,934.11
2017-04-27T09:41:39.357Z,934.12
2017-04-27T09:42:52.288Z,934.11
2017-04-27T09:44:04.722Z,934.1
2017-04-27T09:45:17.651Z,934.14
2017-04-27T09:46:30.600Z,934.16
2017-04-27T09:47:57.566Z,934.15
2017-04-27T09:49:10.503Z,934.15
2017-04-27T09:50:23.413Z,934.17
2017-04-27T09:51:35.684Z,934.24
2017-04-27T09:52:47.954Z,934.32
2017-04-27T09:54:00.704Z,934.31
2017-04-27T09:55:12.988Z,934.34
2017-04-27T09:56:25.379Z,934.35
2017-04-27T09:57:37.311Z,934.34
2017-04-27T09:58:50.191Z,934.35
2017-04-27T10:00:02.581Z,934.35
2017-04-27T10:01:15.459Z,934.35
2017-04-27T10:02:28.339Z,934.41
2017-04-27T10:03:41.219Z,934.41
2017-04-27T10:04:54.099Z,934.46
2017-04-27T10:06:06.499Z,934.51
2017-04-27T10:07:19.378Z,934.57
2017-04-27T10:08:32.256Z,934.6
2017-04-27T10:09:45.141Z,934.64
2017-04-27T10:10:58.024Z,934.69
2017-04-27T10:12:10.902Z,934.68
2017-04-27T10:13:23.776Z,934.68
2017-04-27T10:14:36.656Z,934.69
2017-04-27T10:15:49.047Z,934.68
2017-04-27T10:17:01.926Z,934.69
2017-04-27T10:18:14.311Z,934.74
2017-04-27T10:19:27.190Z,934.77
2017-04-27T10:20:39.580Z,934.8
2017-04-27T10:21:52.466Z,934.8
2017-04-27T10:23:04.867Z,934.74
2017-04-27T10:24:17.747Z,934.74
2017-04-27T10:25:30.649Z,934.75
2017-04-27T10:26:43.528Z,934.72
2017-04-27T10:27:56.435Z,934.74
2017-04-27T10:29:08.824Z,934.77
2017-04-27T10:30:21.512Z,934.81
2017-04-27T10:31:34.393Z,934.83
2017-04-27T10:32:47.271Z,934.81
2017-04-27T10:34:00.146Z,934.86
2017-04-27T10:35:12.537Z,934.88
2017-04-27T10:36:25.178Z,934.89
2017-04-27T10:37:37.577Z,934.92
2017-04-27T10:38:50.452Z,934.89
2017-04-27T10:40:03.328Z,934.88
2017-04-27T10:41:15.134Z,934.88
2017-04-27T10:42:27.398Z,934.87
2017-04-27T10:43:39.668Z,934.87
2017-04-27T10:44:52.414Z,934.85
2017-04-27T10:46:05.158Z,934.86
2017-04-27T10:47:18.152Z,934.87
2017-04-27T10:48:30.899Z,934.88
2017-04-27T10:49:43.642Z,934.9
2017-04-27T10:50:56.395Z,934.88
2017-04-27T10:53:35.965Z,934.93
2017-04-27T10:54:48.240Z,934.98
2017-04-27T10:56:00.503Z,935.01
2017-04-27T10:57:12.775Z,935
2017-04-27T10:58:25.520Z,934.98
2017-04-27T10:59:37.789Z,935.01
2017-04-27T11:00:50.052Z,935.06
2017-04-27T11:02:02.828Z,935.14
2017-04-27T11:03:15.819Z,935.16
2017-04-27T11:05:54.949Z,935.32
2017-04-27T11:07:07.214Z,935.31
2017-04-27T11:08:19.488Z,935.37
2017-04-27T11:09:31.760Z,935.34
2017-04-27T11:10:44.503Z,935.37
2017-04-27T11:11:56.765Z,935.37
2017-04-27T11:13:09.229Z,935.35
2017-04-27T11:14:21.987Z,935.4
2017-04-27T11:15:34.734Z,935.41
2017-04-27T11:16:47.476Z,935.38
2017-04-27T11:18:00.216Z,935.39
2017-04-27T11:19:12.985Z,935.4
2017-04-27T11:20:25.254Z,935.41
2017-04-27T11:21:37.995Z,935.44
2017-04-27T11:22:51.043Z,935.47
2017-04-27T11:24:03.308Z,935.49
2017-04-27T11:25:15.597Z,935.47
2017-04-27T11:26:28.473Z,935.46
2017-04-27T11:27:41.660Z,935.51
2017-04-27T11:28:54.055Z,935.57
2017-04-27T11:30:06.446Z,935.57
2017-04-27T11:31:19.332Z,935.61
2017-04-27T11:32:32.214Z,935.64
2017-04-27T11:33:44.604Z,935.68
2017-04-27T11:34:56.998Z,935.67
2017-04-27T11:36:09.389Z,935.67
2017-04-27T11:37:22.264Z,935.67
2017-04-27T11:38:34.660Z,935.7
2017-04-27T11:40:16.709Z,935.69
2017-04-27T11:41:29.581Z,935.71
2017-04-27T11:42:41.483Z,935.74
2017-04-27T11:43:54.361Z,935.71
2017-04-27T11:45:07.246Z,935.71
2017-04-27T11:46:19.638Z,935.69
2017-04-27T11:47:32.027Z,935.72
2017-04-27T11:48:44.907Z,935.68
2017-04-27T11:49:58.038Z,935.67
2017-04-27T11:51:10.918Z,935.71
2017-04-27T11:52:24.393Z,935.75
2017-04-27T11:53:37.278Z,935.76
2017-04-27T11:54:49.691Z,935.74
2017-04-27T11:56:02.570Z,935.72
2017-04-27T11:57:15.448Z,935.68
2017-04-27T11:58:28.327Z,935.68
2017-04-27T11:59:40.719Z,935.7
2017-04-27T12:00:53.594Z,935.7
2017-04-27T12:02:06.470Z,935.7
2017-04-27T12:03:18.372Z,935.7
2017-04-27T12:04:31.256Z,935.72
2017-04-27T12:05:43.662Z,935.79
2017-04-27T12:06:56.540Z,935.82
2017-04-27T12:08:09.420Z,935.86
2017-04-27T12:09:21.812Z,935.85
2017-04-27T12:10:34.186Z,935.81
2017-04-27T12:11:46.758Z,935.83
2017-04-27T12:12:59.507Z,935.84
2017-04-27T12:14:11.774Z,935.91
2017-04-27T12:15:24.528Z,935.93
2017-04-27T12:16:37.271Z,935.98
2017-04-27T12:17:50.012Z,935.93
2017-04-27T12:19:02.762Z,935.96
2017-04-27T12:20:14.553Z,935.98
2017-04-27T12:21:27.296Z,936.01
2017-04-27T12:22:39.900Z,936.05
2017-04-27T12:23:52.655Z,936.03
2017-04-27T12:25:04.445Z,936.04
2017-04-27T12:26:16.718Z,936.05
2017-04-27T12:27:29.758Z,936.04
2017-04-27T12:28:42.029Z,935.96
2017-04-27T12:29:54.773Z,935.94
2017-04-27T12:31:07.038Z,935.97
2017-04-27T12:32:19.300Z,935.97
2017-04-27T12:33:31.337Z,935.96
2017-04-27T12:34:44.090Z,935.98
2017-04-27T12:35:56.835Z,935.96
2017-04-27T12:37:08.155Z,935.96
2017-04-27T12:38:20.893Z,935.98
2017-04-27T12:39:33.641Z,936.01
2017-04-27T12:40:46.384Z,936.05
2017-04-27T12:41:59.135Z,936.03
2017-04-27T12:43:11.893Z,936.04
2017-04-27T12:44:24.789Z,936.01
2017-04-27T12:45:37.547Z,935.97
2017-04-27T12:46:50.293Z,935.98
2017-04-27T12:48:03.042Z,935.97
2017-04-27T12:49:15.319Z,936.01
2017-04-27T12:50:28.317Z,935.99
2017-04-27T12:51:41.059Z,936
2017-04-27T12:52:53.801Z,935.98
2017-04-27T12:54:06.543Z,936.01
2017-04-27T12:56:46.113Z,935.98
2017-04-27T12:57:58.861Z,935.93
2017-04-27T12:59:11.127Z,935.95
2017-04-27T13:00:23.397Z,935.96
2017-04-27T13:01:36.143Z,935.91
2017-04-27T13:02:48.886Z,935.87
2017-04-27T13:04:01.631Z,935.88
2017-04-27T13:05:13.896Z,935.89
2017-04-27T13:06:40.721Z,935.98
2017-04-27T13:07:53.462Z,935.97
2017-04-27T13:09:05.259Z,936
2017-04-27T13:10:18.008Z,936.06
2017-04-27T13:11:30.535Z,936.08
2017-04-27T13:12:43.456Z,936.08
2017-04-27T13:13:56.383Z,936.12
2017-04-27T13:15:08.813Z,936.17
2017-04-27T13:16:21.009Z,936.19
2017-04-27T13:17:33.935Z,936.22
2017-04-27T13:18:46.369Z,936.25
2017-04-27T13:19:59.298Z,936.25
2017-04-27T13:21:12.224Z,936.27
2017-04-27T13:22:25.417Z,936.26
2017-04-27T13:23:38.338Z,936.29
2017-04-27T13:24:51.266Z,936.31
2017-04-27T13:26:04.192Z,936.3
2017-04-27T13:27:17.368Z,936.3
2017-04-27T13:28:30.298Z,936.33
2017-04-27T13:29:43.231Z,936.29
2017-04-27T13:30:55.673Z,936.32
2017-04-27T13:32:08.114Z,936.33
2017-04-27T13:33:20.552Z,936.31
2017-04-27T13:34:32.985Z,936.33
2017-04-27T13:35:45.910Z,936.28
2017-04-27T13:36:58.833Z,936.28
2017-04-27T13:38:11.268Z,936.25
2017-04-27T13:39:24.224Z,936.3
2017-04-27T13:40:37.146Z,936.28
2017-04-27T13:41:49.604Z,936.25
2017-04-27T13:43:02.035Z,936.36
2017-04-27T13:44:13.976Z,936.35
2017-04-27T13:45:26.889Z,936.36
2017-04-27T13:46:39.638Z,936.36
2017-04-27T13:47:52.383Z,936.32
2017-04-27T13:49:05.123Z,936.3
2017-04-27T13:50:17.872Z,936.27
2017-04-27T13:51:30.138Z,936.19
2017-04-27T13:52:42.881Z,936.16
2017-04-27T13:53:55.156Z,936.13
2017-04-27T13:55:07.904Z,936.12
2017-04-27T13:56:20.174Z,936.07
2017-04-27T13:57:32.912Z,936.09
2017-04-27T14:00:12.052Z,936.06
2017-04-27T14:01:24.793Z,936.06
2017-04-27T14:02:37.536Z,936.03
2017-04-27T14:03:50.286Z,936.04
2017-04-27T14:05:02.560Z,936
2017-04-27T14:06:15.306Z,935.91
2017-04-27T14:07:28.048Z,935.91
2017-04-27T14:08:40.796Z,935.9
2017-04-27T14:09:53.546Z,935.86
2017-04-27T14:11:06.292Z,935.84
2017-04-27T14:12:18.552Z,935.81
2017-04-27T14:13:31.291Z,935.81
2017-04-27T14:14:44.032Z,935.82
2017-04-27T14:15:56.881Z,935.8
2017-04-27T14:17:08.187Z,935.77
2017-04-27T14:18:20.934Z,935.76
2017-04-27T14:19:33.679Z,935.74
2017-04-27T14:20:45.951Z,935.73
2017-04-27T14:21:58.955Z,935.73
2017-04-27T14:23:10.415Z,935.73
2017-04-27T14:24:21.865Z,935.73
2017-04-27T14:25:34.807Z,935.7
2017-04-27T14:26:47.368Z,935.69
2017-04-27T14:28:00.430Z,935.7
2017-04-27T14:29:13.497Z,935.68
2017-04-27T14:30:26.564Z,935.69
2017-04-27T14:31:39.635Z,935.65
2017-04-27T14:32:52.446Z,935.62
2017-04-27T14:34:05.511Z,935.62
2017-04-27T14:35:18.572Z,935.58
2017-04-27T14:36:31.146Z,935.59
2017-04-27T14:37:44.209Z,935.57
2017-04-27T14:38:57.269Z,935.56
2017-04-27T14:40:09.827Z,935.56
2017-04-27T14:41:22.387Z,935.55
2017-04-27T14:42:35.450Z,935.57
2017-04-27T14:43:48.510Z,935.56
2017-04-27T14:45:00.582Z,935.56
2017-04-27T14:46:13.349Z,935.55
2017-04-27T14:47:26.412Z,935.54
2017-04-27T14:48:39.478Z,935.55
2017-04-27T14:49:52.050Z,935.52
2017-04-27T14:51:05.115Z,935.58
2017-04-27T14:52:17.683Z,935.57
2017-04-27T14:53:30.746Z,935.58
2017-04-27T14:54:43.808Z,935.56
2017-04-27T14:55:56.869Z,935.6
2017-04-27T14:57:09.770Z,935.55
2017-04-27T14:58:22.644Z,935.61
2017-04-27T14:59:35.343Z,935.61
2017-04-27T15:00:47.739Z,935.57
2017-04-27T15:02:00.617Z,935.55
2017-04-27T15:03:13.009Z,935.56
2017-04-27T15:04:25.902Z,935.54
2017-04-27T15:05:38.782Z,935.52
2017-04-27T15:06:51.174Z,935.54
2017-04-27T15:08:03.564Z,935.54
2017-04-27T15:09:15.957Z,935.57
2017-04-27T15:10:29.143Z,935.51
2017-04-27T15:11:41.530Z,935.51
2017-04-27T15:12:53.924Z,935.52
2017-04-27T15:14:06.810Z,935.54
2017-04-27T15:15:18.720Z,935.56
2017-04-27T15:16:31.997Z,935.55
2017-04-27T15:17:44.876Z,935.57
2017-04-27T15:18:57.758Z,935.57